Pisek, Czech Republic
Current Conditions -  °F | °C
As of 11:00 AM on Friday 31 Oct 2014 (Local Time) from LKLN Reporting Station
NA  
Wind Chill: 52°   Ceiling: NA
Heat Index: 52°   Visibility: NA
Dew Point: 48°   Wind: 2mph
Humidity: 88%   Direction: 220°SW
Pressure: 30.36"   Gusts: NA
Location:  49.31°N, 14.14°E
Report Text: LKLN 310900Z AUTO 22002KT //// ////// 11/09 Q1028
Loading
Personal Weather Stations






























Interactive Weather Map
Tropical Storm Tracking
New forecast layout! Learn more

10-Day Weather Forecast

Advertisements
Track Severe Weather on mobile